KLGF/LGF METAR and TAF weather

Enter ICAO airport designator
Station Type Date Time Source
KLGF METAR 2020/09/18 21:58 UTC NOAA

KLGF 182158Z AUTO 20006KT 10SM CLR 42/07 A2977 RMK AO2 SLP076 T04170065 $


Station Type Date Time Source
KLGF Decoded METAR 2020/09/18 21:58 UTC NOAA

Station name not available
Sep 18, 2020 - 05:58 PM EDT / 2020.09.18 2158 UTC
Wind: from the SSW (200 degrees) at 7 MPH (6 KT):0
Visibility: 10 mile(s):0
Sky conditions: clear
Temperature: 107.1 F (41.7 C)
Dew Point: 43.7 F (6.5 C)
Relative Humidity: 11%
Pressure (altimeter): 29.77 in. Hg (1008 hPa)
ob: KLGF 182158Z AUTO 20006KT 10SM CLR 42/07 A2977 RMK AO2 SLP076 T04170065
cycle: 22

Station Type Date Time Source
KLGF TAF UTC NOAA

Error!

Example: see airport list